createdAt,value
2018-01-26T00:00:05.743Z,41
2018-01-26T00:02:05.736Z,41
2018-01-26T00:04:13.027Z,40.9
2018-01-26T00:06:05.763Z,40.9
2018-01-26T00:08:07.648Z,40.9
2018-01-26T00:10:05.467Z,40.9
2018-01-26T00:12:07.782Z,40.9
2018-01-26T00:14:05.553Z,40.8
2018-01-26T00:16:07.855Z,40.9
2018-01-26T00:18:05.891Z,40.9
2018-01-26T00:20:08.191Z,40.9
2018-01-26T00:22:13.132Z,41
2018-01-26T00:24:05.911Z,40.9
2018-01-26T00:26:05.241Z,40.9
2018-01-26T00:28:05.981Z,41
2018-01-26T00:30:08.308Z,41
2018-01-26T00:32:05.045Z,41
2018-01-26T00:34:08.366Z,41
2018-01-26T00:36:10.190Z,41
2018-01-26T00:38:05.496Z,41
2018-01-26T00:40:05.317Z,40.9
2018-01-26T00:42:10.178Z,40.9
2018-01-26T00:44:05.995Z,40.9
2018-01-26T00:46:05.849Z,40.9
2018-01-26T00:48:05.589Z,40.9
2018-01-26T00:50:10.657Z,40.9
2018-01-26T00:52:05.394Z,40.9
2018-01-26T00:54:10.230Z,40.9
2018-01-26T00:56:06.318Z,40.9
2018-01-26T00:58:05.064Z,40.9
2018-01-26T01:00:05.882Z,40.9
2018-01-26T01:02:18.559Z,40.8
2018-01-26T01:04:05.480Z,40.8
2018-01-26T01:06:05.237Z,40.8
2018-01-26T01:08:10.596Z,40.8
2018-01-26T01:10:05.357Z,40.8
2018-01-26T01:12:05.624Z,40.8
2018-01-26T01:14:06.039Z,40.8
2018-01-26T01:16:05.927Z,40.8
2018-01-26T01:18:05.161Z,40.8
2018-01-26T01:20:08.451Z,40.6
2018-01-26T01:22:05.245Z,40.6
2018-01-26T01:24:06.022Z,40.6
2018-01-26T01:26:08.356Z,40.8
2018-01-26T01:28:05.093Z,40.8
2018-01-26T01:30:05.910Z,40.8
2018-01-26T01:32:05.694Z,40.6
2018-01-26T01:34:08.025Z,40.8
2018-01-26T01:36:05.824Z,40.6
2018-01-26T01:38:08.094Z,40.8
2018-01-26T01:40:05.871Z,40.8
2018-01-26T01:42:05.621Z,40.8
2018-01-26T01:44:05.713Z,40.8
2018-01-26T01:46:05.535Z,40.8
2018-01-26T01:48:05.386Z,40.8
2018-01-26T01:50:07.973Z,40.8
2018-01-26T01:52:12.816Z,40.8
2018-01-26T01:54:05.526Z,40.8
2018-01-26T01:56:08.654Z,40.8
2018-01-26T01:58:05.455Z,40.6
2018-01-26T02:00:13.356Z,40.6
2018-01-26T02:02:05.425Z,40.8
2018-01-26T02:04:05.152Z,40.6
2018-01-26T02:06:05.941Z,40.6
2018-01-26T02:08:05.744Z,40.8
2018-01-26T02:10:06.042Z,40.8
2018-01-26T02:12:13.092Z,40.8
2018-01-26T02:14:05.851Z,40.8
2018-01-26T02:16:05.687Z,40.6
2018-01-26T02:18:05.696Z,40.8
2018-01-26T02:20:05.869Z,40.6
2018-01-26T02:22:08.210Z,40.6
2018-01-26T02:24:13.572Z,40.8
2018-01-26T02:26:05.383Z,40.8
2018-01-26T02:28:05.195Z,40.8
2018-01-26T02:30:08.468Z,40.6
2018-01-26T02:32:05.341Z,40.6
2018-01-26T02:34:05.180Z,40.6
2018-01-26T02:36:05.953Z,40.6
2018-01-26T02:38:05.746Z,40.6
2018-01-26T02:40:05.843Z,40.6
2018-01-26T02:42:05.617Z,40.8
2018-01-26T02:44:05.726Z,40.6
2018-01-26T02:46:08.155Z,40.8
2018-01-26T02:48:05.958Z,40.6
2018-01-26T02:50:08.681Z,40.6
2018-01-26T02:52:15.603Z,40.6
2018-01-26T02:54:05.713Z,40.6
2018-01-26T02:56:05.969Z,40.5
2018-01-26T02:58:05.796Z,40.5
2018-01-26T03:00:05.754Z,40.5
2018-01-26T03:02:08.117Z,40.5
2018-01-26T03:04:05.908Z,40.5
2018-01-26T03:06:08.286Z,40.5
2018-01-26T03:08:08.579Z,40.5
2018-01-26T03:10:05.807Z,40.5
2018-01-26T03:12:05.607Z,40.7
2018-01-26T03:14:05.929Z,40.6
2018-01-26T03:16:08.269Z,40.6
2018-01-26T03:18:05.223Z,40.5
2018-01-26T03:20:06.150Z,40.8
2018-01-26T03:22:05.624Z,40.7
2018-01-26T03:24:07.940Z,40.7
2018-01-26T03:26:05.733Z,40.7
2018-01-26T03:28:05.120Z,40.5
2018-01-26T03:30:06.045Z,40.5
2018-01-26T03:32:05.838Z,40.5
2018-01-26T03:34:05.606Z,40.5
2018-01-26T03:36:10.425Z,40.5
2018-01-26T03:38:08.075Z,40.5
2018-01-26T03:40:08.355Z,40.5
2018-01-26T03:42:05.104Z,40.5
2018-01-26T03:44:06.093Z,40.5
2018-01-26T03:46:05.824Z,40.5
2018-01-26T03:48:05.620Z,40.5
2018-01-26T03:50:05.487Z,40.5
2018-01-26T03:52:10.293Z,40.5
2018-01-26T03:54:05.639Z,40.5
2018-01-26T03:56:05.379Z,40.7
2018-01-26T03:58:05.694Z,40.5
2018-01-26T04:00:05.451Z,40.5
2018-01-26T04:02:07.801Z,40.7
2018-01-26T04:04:08.086Z,40.6
2018-01-26T04:06:05.446Z,40.6
2018-01-26T04:08:08.031Z,40.6
2018-01-26T04:10:05.811Z,40.4
2018-01-26T04:12:05.623Z,40.7
2018-01-26T04:14:05.737Z,40.5
2018-01-26T04:16:05.474Z,40.5
2018-01-26T04:18:05.512Z,40.5
2018-01-26T04:20:08.115Z,40.5
2018-01-26T04:22:05.938Z,40.5
2018-01-26T04:24:05.712Z,40.4
2018-01-26T04:26:05.445Z,40.5
2018-01-26T04:28:05.291Z,40.5
2018-01-26T04:30:06.072Z,40.4
2018-01-26T04:32:05.391Z,40.4
2018-01-26T04:34:08.304Z,40.4
2018-01-26T04:36:10.619Z,40.4
2018-01-26T04:38:05.376Z,40.4
2018-01-26T04:40:07.696Z,40.4
2018-01-26T04:42:10.606Z,40.4
2018-01-26T04:44:08.696Z,40.3
2018-01-26T04:46:05.787Z,40.4
2018-01-26T04:48:05.511Z,40.4
2018-01-26T04:50:07.819Z,40.4
2018-01-26T04:52:08.145Z,40.4
2018-01-26T04:54:06.028Z,40.5
2018-01-26T04:56:05.895Z,40.5
2018-01-26T04:58:05.644Z,40.4
2018-01-26T05:00:05.918Z,40.6
2018-01-26T05:02:05.654Z,40.4
2018-01-26T05:04:05.487Z,40.5
2018-01-26T05:06:05.351Z,40.5
2018-01-26T05:08:05.196Z,40.4
2018-01-26T05:10:08.536Z,40.4
2018-01-26T05:12:05.260Z,40.4
2018-01-26T05:14:06.035Z,40.4
2018-01-26T05:16:05.793Z,40.3
2018-01-26T05:18:10.388Z,40.4
2018-01-26T05:20:10.246Z,40.4
2018-01-26T05:22:10.625Z,40.4
2018-01-26T05:24:05.844Z,40.4
2018-01-26T05:26:07.681Z,40.4
2018-01-26T05:28:05.423Z,40.4
2018-01-26T05:30:05.685Z,40.4
2018-01-26T05:32:05.489Z,40.4
2018-01-26T05:34:05.506Z,40.4
2018-01-26T05:36:10.962Z,40.3
2018-01-26T05:38:05.721Z,40.3
2018-01-26T05:40:05.475Z,40.4
2018-01-26T05:42:05.272Z,40.4
2018-01-26T05:44:06.016Z,40.4
2018-01-26T05:46:08.305Z,40.4
2018-01-26T05:48:11.029Z,40.4
2018-01-26T05:50:11.116Z,40.4
2018-01-26T05:52:13.537Z,40.3
2018-01-26T05:54:05.323Z,40.3
2018-01-26T05:56:05.123Z,40.1
2018-01-26T05:58:05.931Z,40.4
2018-01-26T06:00:08.286Z,40.4
2018-01-26T06:02:05.574Z,40.3
2018-01-26T06:04:05.382Z,40.4
2018-01-26T06:06:05.142Z,40.4
2018-01-26T06:08:05.912Z,40.4
2018-01-26T06:10:05.766Z,40.4
2018-01-26T06:12:05.623Z,40.4
2018-01-26T06:14:11.055Z,40.2
2018-01-26T06:16:05.807Z,40.1
2018-01-26T06:18:05.452Z,40.2
2018-01-26T06:20:05.420Z,40.1
2018-01-26T06:22:08.215Z,40.1
2018-01-26T06:24:05.252Z,40.3
2018-01-26T06:26:05.628Z,40.1
2018-01-26T06:28:05.440Z,40.1
2018-01-26T06:30:05.356Z,40.1
2018-01-26T06:32:05.237Z,40.1
2018-01-26T06:34:05.988Z,40.1
2018-01-26T06:36:05.701Z,40.1
2018-01-26T06:38:05.743Z,40.2
2018-01-26T06:40:12.659Z,40.1
2018-01-26T06:42:05.390Z,40.1
2018-01-26T06:44:07.784Z,40.1
2018-01-26T06:46:08.154Z,40.1
2018-01-26T06:48:05.893Z,40.1
2018-01-26T06:50:05.632Z,40.1
2018-01-26T06:52:05.875Z,40.1
2018-01-26T06:54:05.718Z,40.1
2018-01-26T06:56:05.556Z,40.1
2018-01-26T06:58:05.295Z,40
2018-01-26T07:00:06.059Z,40.3
2018-01-26T07:02:10.872Z,40.1
2018-01-26T07:04:13.277Z,40.1
2018-01-26T07:06:05.143Z,40.1
2018-01-26T07:08:08.703Z,40.1
2018-01-26T07:10:06.038Z,40.1
2018-01-26T07:12:05.821Z,40
2018-01-26T07:14:06.042Z,40.1
2018-01-26T07:16:05.816Z,40.1
2018-01-26T07:18:05.797Z,40.1
2018-01-26T07:20:05.412Z,40.1
2018-01-26T07:22:05.125Z,40.1
2018-01-26T07:24:05.892Z,40.1
2018-01-26T07:26:05.648Z,40.1
2018-01-26T07:28:05.395Z,40.1
2018-01-26T07:30:05.174Z,40.1
2018-01-26T07:32:05.946Z,40.1
2018-01-26T07:34:05.784Z,40.1
2018-01-26T07:36:05.556Z,39.9
2018-01-26T07:38:07.981Z,40
2018-01-26T07:40:05.819Z,39.9
2018-01-26T07:42:08.180Z,39.9
2018-01-26T07:44:05.971Z,39.9
2018-01-26T07:46:05.738Z,39.9
2018-01-26T07:48:06.048Z,40.1
2018-01-26T07:50:08.367Z,40.1
2018-01-26T07:52:05.156Z,39.9
2018-01-26T07:54:08.435Z,39.9
2018-01-26T07:56:05.183Z,39.9
2018-01-26T07:58:05.962Z,40.1
2018-01-26T08:00:05.276Z,39.9
2018-01-26T08:02:06.311Z,39.9
2018-01-26T08:04:05.124Z,39.9
2018-01-26T08:06:05.267Z,39.9
2018-01-26T08:08:06.104Z,40.1
2018-01-26T08:10:05.369Z,39.9
2018-01-26T08:12:05.122Z,39.9
2018-01-26T08:14:05.887Z,39.9
2018-01-26T08:16:05.197Z,39.9
2018-01-26T08:18:10.261Z,39.9
2018-01-26T08:20:06.032Z,40.1
2018-01-26T08:22:05.886Z,39.9
2018-01-26T08:24:05.678Z,40.1
2018-01-26T08:26:05.776Z,39.9
2018-01-26T08:28:08.068Z,39.9
2018-01-26T08:30:06.120Z,39.9
2018-01-26T08:32:06.146Z,39.9
2018-01-26T08:34:05.904Z,39.9
2018-01-26T08:36:05.674Z,40
2018-01-26T08:38:05.487Z,39.8
2018-01-26T08:40:07.758Z,39.9
2018-01-26T08:42:10.615Z,39.9
2018-01-26T08:44:05.458Z,39.9
2018-01-26T08:46:05.237Z,40
2018-01-26T08:48:05.128Z,40
2018-01-26T08:50:05.896Z,40
2018-01-26T08:52:05.659Z,39.8
2018-01-26T08:54:05.973Z,39.8
2018-01-26T08:56:05.996Z,39.8
2018-01-26T08:58:05.306Z,39.8
2018-01-26T09:00:05.662Z,39.9
2018-01-26T09:02:08.256Z,39.9
2018-01-26T09:04:08.140Z,39.8
2018-01-26T09:06:13.445Z,39.8
2018-01-26T09:08:05.262Z,39.8
2018-01-26T09:10:05.504Z,39.8
2018-01-26T09:12:05.265Z,39.8
2018-01-26T09:14:05.087Z,39.8
2018-01-26T09:16:05.907Z,39.9
2018-01-26T09:18:05.928Z,39.9
2018-01-26T09:20:07.765Z,39.9
2018-01-26T09:22:05.568Z,39.9
2018-01-26T09:24:05.284Z,39.9
2018-01-26T09:26:06.321Z,39.9
2018-01-26T09:28:10.165Z,39.9
2018-01-26T09:30:05.954Z,39.9
2018-01-26T09:32:05.986Z,39.9
2018-01-26T09:34:06.034Z,39.9
2018-01-26T09:36:08.314Z,39.9
2018-01-26T09:38:07.627Z,39.9
2018-01-26T09:40:05.513Z,39.9
2018-01-26T09:42:05.324Z,39.9
2018-01-26T09:44:05.106Z,39.9
2018-01-26T09:46:05.929Z,39.7
2018-01-26T09:48:05.744Z,39.7
2018-01-26T09:50:10.106Z,39.7
2018-01-26T09:52:05.830Z,39.7
2018-01-26T09:54:05.573Z,39.9
2018-01-26T09:56:05.705Z,39.7
2018-01-26T09:58:05.054Z,39.9
2018-01-26T10:00:05.897Z,39.7
2018-01-26T10:02:05.718Z,40
2018-01-26T10:04:05.941Z,39.7
2018-01-26T10:06:05.229Z,39.7
2018-01-26T10:08:05.683Z,39.7
2018-01-26T10:10:05.677Z,39.8
2018-01-26T10:12:08.541Z,39.8
2018-01-26T10:14:05.305Z,39.8
2018-01-26T10:16:05.570Z,39.8
2018-01-26T10:18:05.507Z,39.8
2018-01-26T10:20:05.801Z,39.8
2018-01-26T10:22:05.837Z,39.8
2018-01-26T10:24:05.590Z,39.8
2018-01-26T10:26:08.419Z,39.8
2018-01-26T10:28:05.175Z,39.8
2018-01-26T10:30:08.488Z,39.9
2018-01-26T10:32:05.269Z,39.9
2018-01-26T10:34:05.987Z,39.7
2018-01-26T10:36:05.296Z,39.8
2018-01-26T10:38:05.878Z,39.9
2018-01-26T10:40:05.295Z,39.6
2018-01-26T10:42:06.116Z,39.9
2018-01-26T10:44:05.968Z,39.8
2018-01-26T10:46:05.697Z,39.6
2018-01-26T10:48:06.017Z,39.9
2018-01-26T10:50:06.158Z,39.7
2018-01-26T10:52:05.883Z,39.9
2018-01-26T10:54:05.249Z,39.8
2018-01-26T10:56:07.644Z,39.7
2018-01-26T10:58:05.901Z,39.7
2018-01-26T11:00:05.654Z,39.7
2018-01-26T11:02:05.722Z,39.9
2018-01-26T11:04:08.019Z,39.9
2018-01-26T11:06:05.782Z,39.7
2018-01-26T11:08:08.054Z,39.9
2018-01-26T11:10:05.818Z,39.7
2018-01-26T11:12:08.151Z,39.8
2018-01-26T11:14:06.006Z,39.8
2018-01-26T11:16:05.858Z,39.9
2018-01-26T11:18:05.821Z,39.8
2018-01-26T11:20:08.105Z,39.9
2018-01-26T11:22:05.412Z,40
2018-01-26T11:24:05.711Z,39.9
2018-01-26T11:26:05.739Z,39.9
2018-01-26T11:28:05.486Z,39.9
2018-01-26T11:30:05.212Z,40
2018-01-26T11:32:06.010Z,40.2
2018-01-26T11:34:05.744Z,40.5
2018-01-26T11:36:06.028Z,40.5
2018-01-26T11:38:05.834Z,40.4
2018-01-26T11:40:05.100Z,40.4
2018-01-26T11:42:06.342Z,40.4
2018-01-26T11:44:06.091Z,40.5
2018-01-26T11:46:05.123Z,40.5
2018-01-26T11:48:05.108Z,40.6
2018-01-26T11:50:06.117Z,40.8
2018-01-26T11:52:10.928Z,40.5
2018-01-26T11:54:05.672Z,40.7
2018-01-26T11:56:05.950Z,40.8
2018-01-26T11:58:11.061Z,40.7
2018-01-26T12:00:05.816Z,40.6
2018-01-26T12:02:05.922Z,40.7
2018-01-26T12:04:05.624Z,40.7
2018-01-26T12:06:05.338Z,40.6
2018-01-26T12:08:08.219Z,40.7
2018-01-26T12:10:06.064Z,40.7
2018-01-26T12:12:05.846Z,40.6
2018-01-26T12:14:08.409Z,40.6
2018-01-26T12:16:05.130Z,40.6
2018-01-26T12:18:05.047Z,40.6
2018-01-26T12:20:05.801Z,40.6
2018-01-26T12:22:05.536Z,40.6
2018-01-26T12:24:05.373Z,40.6
2018-01-26T12:26:08.338Z,40.6
2018-01-26T12:28:05.077Z,40.6
2018-01-26T12:30:06.041Z,40.6
2018-01-26T12:32:05.804Z,40.6
2018-01-26T12:34:05.557Z,40.6
2018-01-26T12:36:05.328Z,40.5
2018-01-26T12:38:05.077Z,40.5
2018-01-26T12:40:05.835Z,40.5
2018-01-26T12:42:05.663Z,40.6
2018-01-26T12:44:05.473Z,40.2
2018-01-26T12:46:12.834Z,40.5
2018-01-26T12:48:05.597Z,40.6
2018-01-26T12:50:06.001Z,40.5
2018-01-26T12:52:05.745Z,40.3
2018-01-26T12:54:05.531Z,40.5
2018-01-26T12:56:08.124Z,40.3
2018-01-26T12:58:05.847Z,40.3
2018-01-26T13:00:05.595Z,40.3
2018-01-26T13:02:05.398Z,40.3
2018-01-26T13:04:05.169Z,40.3
2018-01-26T13:06:05.945Z,40.5
2018-01-26T13:08:05.277Z,40.5
2018-01-26T13:10:06.052Z,40.2
2018-01-26T13:12:08.302Z,40.5
2018-01-26T13:14:06.168Z,40.2
2018-01-26T13:16:05.934Z,40.2
2018-01-26T13:18:08.428Z,40.2
2018-01-26T13:20:07.731Z,40.4
2018-01-26T13:22:05.517Z,40.2
2018-01-26T13:24:05.259Z,40.2
2018-01-26T13:26:05.334Z,40.1
2018-01-26T13:28:05.080Z,40.1
2018-01-26T13:30:05.446Z,40.1
2018-01-26T13:32:07.747Z,40.1
2018-01-26T13:34:05.508Z,40.1
2018-01-26T13:36:05.278Z,40.1
2018-01-26T13:38:06.033Z,40.1
2018-01-26T13:40:05.780Z,40.2
2018-01-26T13:42:05.705Z,40.1
2018-01-26T13:44:08.244Z,40.1
2018-01-26T13:46:05.616Z,40.1
2018-01-26T13:48:05.456Z,40.2
2018-01-26T13:50:05.528Z,40.1
2018-01-26T13:52:05.307Z,40.1
2018-01-26T13:54:05.598Z,40.1
2018-01-26T13:56:05.930Z,40.1
2018-01-26T13:58:13.235Z,40.1
2018-01-26T14:00:06.022Z,40.1
2018-01-26T14:02:05.800Z,40.1
2018-01-26T14:04:05.597Z,40.1
2018-01-26T14:06:07.943Z,40.1
2018-01-26T14:08:06.064Z,40.1
2018-01-26T14:10:07.890Z,40.1
2018-01-26T14:12:05.226Z,40.1
2018-01-26T14:14:06.799Z,40
2018-01-26T14:16:05.583Z,40.1
2018-01-26T14:18:05.112Z,40
2018-01-26T14:20:08.429Z,40.1
2018-01-26T14:22:05.234Z,40.1
2018-01-26T14:24:05.974Z,40.1
2018-01-26T14:26:13.294Z,40
2018-01-26T14:28:06.068Z,40.1
2018-01-26T14:30:05.905Z,40.1
2018-01-26T14:32:05.853Z,40.3
2018-01-26T14:34:08.188Z,40.4
2018-01-26T14:36:08.062Z,40.3
2018-01-26T14:38:10.990Z,40.3
2018-01-26T14:40:05.749Z,40.3
2018-01-26T14:42:06.043Z,40.3
2018-01-26T14:44:06.044Z,40.3
2018-01-26T14:46:08.324Z,40.5
2018-01-26T14:48:05.115Z,40.5
2018-01-26T14:50:06.177Z,40.4
2018-01-26T14:52:06.027Z,40.4
2018-01-26T14:54:07.846Z,40.4
2018-01-26T14:56:05.850Z,40.4
2018-01-26T14:58:05.593Z,40.5
2018-01-26T15:00:06.058Z,40.6
2018-01-26T15:02:05.871Z,40.5
2018-01-26T15:04:05.681Z,40.5
2018-01-26T15:06:05.422Z,40.5
2018-01-26T15:08:10.255Z,40.6
2018-01-26T15:10:06.038Z,40.6
2018-01-26T15:12:05.885Z,40.5
2018-01-26T15:14:05.943Z,40.7
2018-01-26T15:16:05.695Z,40.6
2018-01-26T15:18:05.664Z,42.8
2018-01-26T15:20:05.960Z,43.2
2018-01-26T15:22:05.690Z,43.2
2018-01-26T15:24:13.094Z,42.9
2018-01-26T15:26:05.839Z,42.7
2018-01-26T15:28:06.453Z,42.6
2018-01-26T15:30:10.457Z,42.4
2018-01-26T15:32:10.517Z,42.2
2018-01-26T15:34:05.553Z,41.9
2018-01-26T15:36:05.394Z,41.9
2018-01-26T15:38:05.239Z,41.9
2018-01-26T15:40:05.796Z,41.9
2018-01-26T15:42:05.898Z,41.9
2018-01-26T15:44:07.750Z,41.9
2018-01-26T15:46:15.626Z,41.9
2018-01-26T15:48:05.412Z,41.9
2018-01-26T15:50:05.865Z,41.7
2018-01-26T15:52:05.385Z,41.7
2018-01-26T15:54:05.154Z,41.7
2018-01-26T15:56:05.899Z,41.7
2018-01-26T15:58:07.740Z,41.4
2018-01-26T16:00:06.079Z,41.7
2018-01-26T16:02:05.959Z,41.7
2018-01-26T16:04:05.734Z,41.7
2018-01-26T16:06:05.640Z,41.7
2018-01-26T16:08:05.411Z,41.7
2018-01-26T16:10:05.232Z,41.8
2018-01-26T16:12:05.969Z,41.7
2018-01-26T16:14:06.051Z,41.7
2018-01-26T16:16:05.967Z,41.4
2018-01-26T16:18:06.950Z,41.5
2018-01-26T16:20:06.248Z,41.5
2018-01-26T16:22:07.740Z,41.5
2018-01-26T16:24:05.617Z,41.5
2018-01-26T16:26:05.502Z,41.5
2018-01-26T16:28:07.787Z,41.2
2018-01-26T16:30:08.110Z,41.5
2018-01-26T16:32:05.883Z,41.6
2018-01-26T16:34:08.179Z,41.6
2018-01-26T16:36:11.057Z,41.4
2018-01-26T16:38:08.450Z,41.6
2018-01-26T16:40:05.213Z,41.4
2018-01-26T16:42:05.963Z,41.4
2018-01-26T16:44:08.362Z,41.6
2018-01-26T16:46:05.152Z,41.6
2018-01-26T16:48:05.931Z,41.6
2018-01-26T16:50:05.250Z,41.7
2018-01-26T16:52:08.596Z,41.5
2018-01-26T16:54:05.425Z,41.5
2018-01-26T16:56:05.430Z,41.5
2018-01-26T16:58:10.281Z,41.5
2018-01-26T17:00:05.593Z,41.5
2018-01-26T17:02:05.658Z,41.5
2018-01-26T17:04:05.402Z,41.5
2018-01-26T17:06:09.358Z,41.5
2018-01-26T17:08:05.334Z,41.5
2018-01-26T17:10:10.848Z,41.5
2018-01-26T17:12:05.711Z,41.4
2018-01-26T17:14:08.060Z,41.4
2018-01-26T17:16:08.341Z,41.4
2018-01-26T17:18:05.843Z,41.5
2018-01-26T17:20:06.381Z,41.4
2018-01-26T17:22:05.211Z,41.4
2018-01-26T17:24:06.141Z,41.4
2018-01-26T17:26:11.011Z,41.4
2018-01-26T17:28:05.931Z,41.5
2018-01-26T17:30:11.119Z,41.3
2018-01-26T17:32:10.911Z,41.2
2018-01-26T17:34:05.740Z,41.5
2018-01-26T17:36:06.033Z,41.2
2018-01-26T17:38:05.370Z,41.3
2018-01-26T17:40:05.554Z,41.3
2018-01-26T17:42:05.622Z,41.3
2018-01-26T17:44:05.373Z,41.3
2018-01-26T17:46:05.281Z,41.3
2018-01-26T17:48:10.149Z,41.3
2018-01-26T17:50:05.547Z,41.3
2018-01-26T17:52:05.878Z,41.2
2018-01-26T17:54:05.777Z,41.2
2018-01-26T17:56:05.148Z,41.2
2018-01-26T17:58:08.600Z,41.4
2018-01-26T18:00:05.565Z,41.2
2018-01-26T18:02:05.765Z,41.2
2018-01-26T18:04:08.236Z,41.3
2018-01-26T18:06:05.428Z,41.1
2018-01-26T18:08:08.285Z,41.2
2018-01-26T18:10:05.239Z,41.1
2018-01-26T18:12:05.199Z,41.4
2018-01-26T18:14:08.826Z,41.3
2018-01-26T18:16:06.093Z,41.2
2018-01-26T18:18:08.304Z,41.1
2018-01-26T18:20:05.467Z,41.1
2018-01-26T18:22:05.736Z,41.1
2018-01-26T18:24:08.118Z,41.1
2018-01-26T18:26:08.557Z,41.2
2018-01-26T18:28:05.600Z,41.2
2018-01-26T18:30:08.493Z,41.2
2018-01-26T18:32:05.453Z,41.1
2018-01-26T18:34:05.685Z,41.2
2018-01-26T18:36:05.912Z,41.2
2018-01-26T18:38:05.374Z,41.2
2018-01-26T18:40:05.430Z,41.3
2018-01-26T18:42:10.723Z,41.2
2018-01-26T18:44:05.793Z,41.3
2018-01-26T18:46:05.871Z,41.2
2018-01-26T18:48:05.962Z,41.3
2018-01-26T18:50:06.100Z,41.2
2018-01-26T18:52:06.957Z,41.3
2018-01-26T18:54:06.329Z,41.2
2018-01-26T18:56:05.484Z,41.3
2018-01-26T18:58:06.054Z,41.2
2018-01-26T19:00:06.022Z,41.2
2018-01-26T19:02:05.884Z,41.2
2018-01-26T19:04:05.729Z,41.2
2018-01-26T19:06:06.316Z,41.2
2018-01-26T19:08:10.377Z,41.3
2018-01-26T19:10:05.165Z,41.2
2018-01-26T19:12:05.900Z,41.3
2018-01-26T19:14:08.407Z,41.2
2018-01-26T19:16:07.717Z,41.2
2018-01-26T19:18:05.645Z,41.2
2018-01-26T19:20:07.998Z,41.2
2018-01-26T19:22:08.225Z,41.1
2018-01-26T19:24:08.522Z,41.2
2018-01-26T19:26:11.158Z,41
2018-01-26T19:28:05.990Z,41
2018-01-26T19:30:05.355Z,41
2018-01-26T19:32:05.104Z,41.3
2018-01-26T19:34:08.366Z,41.2
2018-01-26T19:36:05.136Z,41.3
2018-01-26T19:38:06.153Z,41.2
2018-01-26T19:40:05.889Z,41.2
2018-01-26T19:42:05.911Z,41.2
2018-01-26T19:44:06.048Z,41.2
2018-01-26T19:46:05.805Z,41
2018-01-26T19:48:07.598Z,41.3
2018-01-26T19:50:06.847Z,41.2
2018-01-26T19:52:11.280Z,41.2
2018-01-26T19:54:08.540Z,41.1
2018-01-26T19:56:08.346Z,41.2
2018-01-26T19:58:07.907Z,41.3
2018-01-26T20:00:05.683Z,41.3
2018-01-26T20:02:05.469Z,41
2018-01-26T20:04:05.292Z,41.3
2018-01-26T20:06:05.525Z,41
2018-01-26T20:08:05.575Z,41
2018-01-26T20:10:05.718Z,41.2
2018-01-26T20:12:07.991Z,41
2018-01-26T20:14:05.476Z,41.2
2018-01-26T20:16:10.297Z,41
2018-01-26T20:18:05.277Z,41
2018-01-26T20:20:08.558Z,41
2018-01-26T20:22:05.298Z,41
2018-01-26T20:24:05.208Z,41
2018-01-26T20:26:05.965Z,41
2018-01-26T20:28:07.849Z,41
2018-01-26T20:30:05.326Z,41
2018-01-26T20:32:12.766Z,41
2018-01-26T20:34:05.541Z,41
2018-01-26T20:36:05.284Z,41
2018-01-26T20:38:08.596Z,41.1
2018-01-26T20:40:05.438Z,41.1
2018-01-26T20:42:12.756Z,41.1
2018-01-26T20:44:10.555Z,41
2018-01-26T20:46:05.798Z,41
2018-01-26T20:48:05.527Z,41.1
2018-01-26T20:50:05.319Z,41.1
2018-01-26T20:52:05.087Z,41.1
2018-01-26T20:54:05.899Z,41.1
2018-01-26T20:56:05.966Z,41.1
2018-01-26T20:58:05.688Z,41.1
2018-01-26T21:00:05.460Z,41.1
2018-01-26T21:02:05.483Z,41.1
2018-01-26T21:04:05.199Z,41.1
2018-01-26T21:06:08.570Z,41.1
2018-01-26T21:08:05.363Z,41
2018-01-26T21:10:05.419Z,41.1
2018-01-26T21:12:05.223Z,41
2018-01-26T21:14:05.941Z,41
2018-01-26T21:16:05.647Z,41
2018-01-26T21:18:05.822Z,41
2018-01-26T21:20:07.703Z,41
2018-01-26T21:22:05.590Z,41
2018-01-26T21:24:05.325Z,41.1
2018-01-26T21:26:05.685Z,41.1
2018-01-26T21:28:05.416Z,41.1
2018-01-26T21:30:10.300Z,41
2018-01-26T21:32:07.798Z,41
2018-01-26T21:34:05.556Z,40.8
2018-01-26T21:36:10.941Z,40.9
2018-01-26T21:38:06.176Z,40.9
2018-01-26T21:40:08.981Z,41.1
2018-01-26T21:42:08.260Z,40.9
2018-01-26T21:44:06.018Z,41.1
2018-01-26T21:46:05.984Z,41
2018-01-26T21:48:05.738Z,41.1
2018-01-26T21:50:13.027Z,41.1
2018-01-26T21:52:10.818Z,40.9
2018-01-26T21:54:05.091Z,41.1
2018-01-26T21:56:08.371Z,41.1
2018-01-26T21:58:05.204Z,40.8
2018-01-26T22:00:08.515Z,41.1
2018-01-26T22:02:10.411Z,40.9
2018-01-26T22:04:12.813Z,40.9
2018-01-26T22:06:05.622Z,41
2018-01-26T22:08:05.383Z,40.9
2018-01-26T22:10:05.225Z,40.9
2018-01-26T22:12:05.983Z,40.9
2018-01-26T22:14:05.757Z,40.9
2018-01-26T22:16:05.582Z,40.9
2018-01-26T22:18:10.688Z,41
2018-01-26T22:20:05.916Z,40.9
2018-01-26T22:22:05.951Z,40.9
2018-01-26T22:24:10.515Z,40.9
2018-01-26T22:26:05.305Z,40.9
2018-01-26T22:28:08.169Z,40.9
2018-01-26T22:30:05.877Z,40.9
2018-01-26T22:32:05.884Z,40.9
2018-01-26T22:34:05.811Z,40.9
2018-01-26T22:36:05.608Z,41
2018-01-26T22:38:05.472Z,40.9
2018-01-26T22:40:05.260Z,41
2018-01-26T22:42:08.574Z,41
2018-01-26T22:44:20.592Z,41
2018-01-26T22:46:05.917Z,41
2018-01-26T22:48:05.676Z,41
2018-01-26T22:50:08.025Z,41
2018-01-26T22:52:08.379Z,41
2018-01-26T22:54:05.224Z,41.2
2018-01-26T22:56:11.060Z,41
2018-01-26T22:58:10.914Z,40.9
2018-01-26T23:00:05.693Z,40.9
2018-01-26T23:02:05.743Z,41
2018-01-26T23:04:06.002Z,41.1
2018-01-26T23:06:05.265Z,40.9
2018-01-26T23:08:08.073Z,40.9
2018-01-26T23:10:06.038Z,40.9
2018-01-26T23:12:05.795Z,41
2018-01-26T23:14:05.774Z,41
2018-01-26T23:16:08.191Z,40.9
2018-01-26T23:18:10.268Z,40.9
2018-01-26T23:20:06.440Z,41
2018-01-26T23:22:05.192Z,40.9
2018-01-26T23:24:05.927Z,40.9
2018-01-26T23:26:05.708Z,41
2018-01-26T23:28:10.586Z,40.9
2018-01-26T23:30:05.365Z,41
2018-01-26T23:32:05.398Z,40.9
2018-01-26T23:34:05.109Z,41
2018-01-26T23:36:05.847Z,41
2018-01-26T23:38:05.118Z,41
2018-01-26T23:40:05.892Z,41
2018-01-26T23:42:05.669Z,41
2018-01-26T23:44:05.744Z,41
2018-01-26T23:46:06.056Z,41
2018-01-26T23:48:06.074Z,41
2018-01-26T23:50:05.070Z,41
2018-01-26T23:52:05.827Z,41
2018-01-26T23:54:08.070Z,41
2018-01-26T23:56:06.148Z,41
2018-01-26T23:58:05.419Z,41
